Hauptseite
METAR-TAF:

METAR-TAF

Flughäfen :

Siegerlandflughafen

Siegen, Deutschland

Breite: 50-42-28N, Länge: 008-04-59E, Höhe: 602 m

Beobachtung

Neuester Wetterbericht von vor 9 Stunden und 30 Minuten, um 15:50 UTC
Wind 17 kt aus Ost/Nordost
Temperatur 16°C
Luftfeuchtigkeit 42%
Luftdruck 1022 hPa
Sichtweite 10 km oder mehr
keine Wolken unter 1500 m und keine Kumulonimbus oder Gewitterwolken

METAR: EDGS 301550Z 06017KT CAVOK 16/03 Q1022

Zeit: 03:20 (01:20 UTC)

Prognose

Neuester Wetterbericht von vor 11 Stunden und 20 Minuten, um 14:00 UTC
Gültige Prognose vom 30 um 15 UTC bis 30 um 24 UTC
Wind 13 kt aus Ost/Nordost
Sichtweite 10 km oder mehr
keine Wolken unter 1500 m und keine Kumulonimbus oder Gewitterwolken
Übergehend zu
vom 30 um 17 UTC bis 30 um 20 UTC
Wind 8 kt aus Ost

TAF: EDGS 301400Z 3015/3024 07013KT CAVOK BECMG 3017/3020 08008KT

Wetterbeobachtungen und Prognosen von mehr als 4000 Flughäfen (METAR und TAF Bericht).

Die verfügbaren Stationen werden durch gelbe und rote Markierungen auf der Karte dargestellt.

Führen Sie die Maus auf sie, um den Namen der Station zu sehen.

Darauf klicken, um die Beobachtung von Wetterbeobachtungen und Prognosen zu sehen.

Um die Karte zu ändern : klicken Sie auf den grünen Tasten mit einem schwarzen Kreuz Zum Vergrößern, auf den grünen Button mit einem Gedankenstrich zu verkleinern, oder auf die grünen Pfeile für benachbarte Karten.


METAR-TAF: